Hammonton, California
Current Conditions -  °F | °C
As of 9:58 AM on Saturday 25 Oct 2014 (Local Time) from KBAB Reporting Station
Light Rain Light Rain  
Wind Chill: 58°   Ceiling: 4800
Heat Index: 58°   Visibility: 6mi
Dew Point: 58°   Wind: 15mph
Humidity: 98%   Direction: 150°SSE
Pressure: 30"   Gusts: NA
Location:  39.1912°N, 121.489°W
Report Text: KBAB 251658Z AUTO 15013KT 6SM -RA BR OVC048 15/14 A3000 RMK AO2 RAB1622DZB1624E1628 SLP235 P0004 T01460143 $
Loading
Personal Weather Stations






























Interactive Weather Map
Tropical Storm Tracking
New forecast layout! Learn more

10-Day Weather Forecast

Advertisements
Track Severe Weather on mobile